createdAt,value
2023-05-03T00:04:07.702Z,15
2023-05-03T00:14:14.077Z,16
2023-05-03T00:24:19.494Z,14
2023-05-03T00:34:25.599Z,11
2023-05-03T00:44:32.062Z,11
2023-05-03T00:54:37.666Z,15
2023-05-03T01:04:45.031Z,32
2023-05-03T01:14:51.593Z,23
2023-05-03T01:24:58.545Z,16
2023-05-03T01:35:05.023Z,17
2023-05-03T01:45:10.880Z,10
2023-05-03T01:55:16.795Z,10
2023-05-03T02:05:23.481Z,9
2023-05-03T02:15:29.090Z,7
2023-05-03T02:25:35.428Z,8
2023-05-03T02:35:42.276Z,11
2023-05-03T02:45:48.504Z,12
2023-05-03T02:55:55.270Z,8
2023-05-03T03:06:01.110Z,9
2023-05-03T03:16:06.961Z,8
2023-05-03T03:26:12.416Z,7
2023-05-03T03:36:18.738Z,9
2023-05-03T03:46:24.259Z,8
2023-05-03T03:56:30.848Z,8
2023-05-03T04:06:36.976Z,7
2023-05-03T04:16:46.045Z,8
2023-05-03T04:27:11.412Z,6
2023-05-03T04:37:05.018Z,6
2023-05-03T04:47:11.173Z,9
2023-05-03T04:57:16.025Z,7
2023-05-03T05:07:21.638Z,6
2023-05-03T05:17:27.097Z,9
2023-05-03T05:27:31.635Z,6
2023-05-03T05:37:38.497Z,8
2023-05-03T05:47:46.103Z,9
2023-05-03T05:57:51.470Z,6
2023-05-03T06:07:56.131Z,7
2023-05-03T06:18:03.271Z,7
2023-05-03T06:28:09.200Z,7
2023-05-03T06:38:15.466Z,7
2023-05-03T06:48:22.156Z,7
2023-05-03T06:58:29.058Z,7
2023-05-03T07:08:36.356Z,6
2023-05-03T07:18:42.601Z,7
2023-05-03T07:28:49.174Z,9
2023-05-03T07:38:56.778Z,7
2023-05-03T07:49:01.622Z,7
2023-05-03T07:59:36.062Z,9
2023-05-03T08:09:29.679Z,11
2023-05-03T08:19:37.323Z,9
2023-05-03T08:29:42.154Z,8
2023-05-03T08:39:48.587Z,7
2023-05-03T08:49:55.666Z,11
2023-05-03T09:00:02.006Z,6
2023-05-03T09:10:07.962Z,8
2023-05-03T09:20:14.613Z,8
2023-05-03T09:30:20.760Z,6
2023-05-03T09:40:29.083Z,7
2023-05-03T09:50:36.731Z,7
2023-05-03T10:00:43.355Z,8
2023-05-03T10:10:50.384Z,7
2023-05-03T10:20:57.793Z,8
2023-05-03T10:31:03.518Z,8
2023-05-03T10:41:10.465Z,7
2023-05-03T10:51:17.323Z,6
2023-05-03T11:01:24.901Z,6
2023-05-03T11:11:30.587Z,7
2023-05-03T11:21:38.299Z,8
2023-05-03T11:31:44.868Z,5
2023-05-03T11:41:50.429Z,6
2023-05-03T11:51:58.625Z,7
2023-05-03T12:02:04.864Z,10
2023-05-03T12:12:26.085Z,7
2023-05-03T12:23:03.735Z,6
2023-05-03T12:32:59.709Z,5
2023-05-03T12:43:03.639Z,7
2023-05-03T12:53:32.904Z,7
2023-05-03T13:05:49.589Z,5
2023-05-03T13:15:45.196Z,5
2023-05-03T13:25:50.450Z,6
2023-05-03T13:46:02.376Z,8
2023-05-03T13:56:08.291Z,7
2023-05-03T14:06:13.577Z,7
2023-05-03T14:16:28.010Z,8
2023-05-03T14:46:49.517Z,8
2023-05-03T14:56:56.644Z,5
2023-05-03T15:07:03.967Z,5
2023-05-03T15:17:13.051Z,6
2023-05-03T15:27:16.768Z,6
2023-05-03T15:37:22.799Z,6
2023-05-03T15:47:30.370Z,8
2023-05-03T15:57:34.382Z,7
2023-05-03T16:07:41.162Z,7
2023-05-03T16:17:46.809Z,6
2023-05-03T16:27:52.609Z,9
2023-05-03T16:37:57.496Z,8
2023-05-03T16:48:06.777Z,9
2023-05-03T16:58:11.476Z,9
2023-05-03T17:08:16.797Z,9
2023-05-03T17:18:22.928Z,8
2023-05-03T17:28:27.763Z,7
2023-05-03T17:38:35.164Z,11
2023-05-03T17:48:42.284Z,10
2023-05-03T17:58:48.807Z,10
2023-05-03T18:08:55.631Z,11
2023-05-03T18:19:02.760Z,12
2023-05-03T18:29:08.186Z,15
2023-05-03T18:39:15.315Z,12
2023-05-03T18:49:21.115Z,11
2023-05-03T18:59:27.331Z,10
2023-05-03T19:09:33.715Z,15
2023-05-03T19:19:40.047Z,13
2023-05-03T19:29:46.891Z,12
2023-05-03T19:39:51.899Z,14
2023-05-03T19:49:59.785Z,17
2023-05-03T20:00:06.162Z,13
2023-05-03T20:10:12.299Z,12
2023-05-03T20:20:18.850Z,13
2023-05-03T20:30:25.802Z,20
2023-05-03T20:40:29.937Z,13
2023-05-03T20:50:36.584Z,20
2023-05-03T21:00:40.846Z,11
2023-05-03T21:10:46.444Z,13
2023-05-03T21:20:53.972Z,21
2023-05-03T21:31:00.316Z,15
2023-05-03T21:41:04.902Z,17
2023-05-03T21:51:11.933Z,15
2023-05-03T22:01:18.117Z,11
2023-05-03T22:11:25.992Z,13
2023-05-03T22:21:33.146Z,11
2023-05-03T22:31:39.505Z,11
2023-05-03T22:41:45.832Z,12
2023-05-03T22:51:50.718Z,10
2023-05-03T23:01:56.177Z,11
2023-05-03T23:12:01.850Z,11
2023-05-03T23:22:08.131Z,11
2023-05-03T23:32:20.008Z,9
2023-05-03T23:42:18.899Z,10
2023-05-03T23:52:24.741Z,11
